»·PEaware :: DAL3419 KSLC-KLMT

DAL3419 :: KSLC-KLMT

FLIGHT INFORMATION

Flight Status: Arrived
Operator:
Delta Air Lines
More flights by this operator :: More flights under this callsign
Pilot: Todd C. (18613)
Aircraft: BOEING 737-800
(B738)
More flights by this aircraft type
Origin: KSLC Salt Lake City Intl
United States
Destination: KLMT Klamath Falls Intl
United States
More flights between these airports :: More routes between these airports
Route: DEZRT1 PECOP LMT
File this flight plan on PilotEdge
Remarks: RMK / SIMBRIEF
Altitude:
(Current/Filed)
36,000ft
Speed:
(Current/Filed)
452kts
Departed: 04-Mar-19 05:51 PM
Arrived: 04-Mar-19 07:18 PM
Distance/Time
Traveled:
446nm/1:27
Distance/Time
To Go:
Arrived

Flight Plot

Page will automatically refresh every two minutes.

Flight plan parsing failed; only flown route is shown


Map Options




Map Legend


Flown Route
Filed Route
Departure Airport
Arrival Airport
Navaid (VOR, NDB)
Fix

Horizontal Profiles

Position Reports

Time Latitude Longitude Heading Altitude Ground
Speed
04-Mar-19 17:12 40.788195 -111.977960 267 4224ft 0kts
04-Mar-19 17:13 40.788195 -111.977960 267 4224ft 0kts
04-Mar-19 17:14 40.788195 -111.977960 267 4224ft 0kts
04-Mar-19 17:15 40.788195 -111.977960 267 4224ft 0kts
04-Mar-19 17:16 40.788195 -111.977960 267 4224ft 0kts
04-Mar-19 17:17 40.788195 -111.977960 267 4224ft 0kts
04-Mar-19 17:18 40.788195 -111.977960 267 4224ft 0kts
04-Mar-19 17:19 40.788195 -111.977960 267 4224ft 0kts
04-Mar-19 17:20 40.788195 -111.977960 267 4224ft 0kts
04-Mar-19 17:21 40.788195 -111.977960 267 4224ft 0kts
04-Mar-19 17:22 40.788195 -111.977960 267 4224ft 0kts
04-Mar-19 17:23 40.788195 -111.977960 267 4224ft 0kts
04-Mar-19 17:24 40.788195 -111.977960 267 4224ft 0kts
04-Mar-19 17:25 40.788195 -111.977960 267 4224ft 0kts
04-Mar-19 17:26 40.788195 -111.977960 267 4224ft 0kts
04-Mar-19 17:27 40.788195 -111.977960 267 4224ft 0kts
04-Mar-19 17:28 40.788195 -111.977960 267 4224ft 0kts
04-Mar-19 17:29 40.788195 -111.977960 267 4224ft 0kts
04-Mar-19 17:30 40.788195 -111.977960 267 4224ft 0kts
04-Mar-19 17:31 40.788195 -111.977960 267 4224ft 0kts
04-Mar-19 17:32 40.788195 -111.977960 267 4224ft 0kts
04-Mar-19 17:33 40.788195 -111.977960 267 4224ft 0kts
04-Mar-19 17:34 40.788195 -111.977960 267 4224ft 0kts
04-Mar-19 17:35 40.788195 -111.977960 267 4224ft 0kts
04-Mar-19 17:36 40.788195 -111.977960 267 4224ft 0kts
04-Mar-19 17:37 40.788195 -111.977960 267 4224ft 0kts
04-Mar-19 17:38 40.788195 -111.977960 267 4224ft 0kts
04-Mar-19 17:39 40.788194 -111.977973 267 4224ft 0kts
04-Mar-19 17:40 40.788195 -111.977964 267 4224ft 0kts
04-Mar-19 17:41 40.788506 -111.977630 358 4223ft 11kts
04-Mar-19 17:42 40.789372 -111.977679 357 4223ft 0kts
04-Mar-19 17:43 40.790467 -111.977292 14 4223ft 20kts
04-Mar-19 17:44 40.797618 -111.977972 355 4224ft 31kts
04-Mar-19 17:45 40.805725 -111.978934 355 4227ft 18kts
04-Mar-19 17:46 40.807369 -111.978656 69 4227ft 0kts
04-Mar-19 17:47 40.807369 -111.978655 69 4227ft 0kts
04-Mar-19 17:48 40.807369 -111.978655 69 4227ft 0kts
04-Mar-19 17:49 40.806801 -111.976865 172 4227ft 11kts
04-Mar-19 17:50 40.769460 -111.972959 182 5001ft 189kts
04-Mar-19 17:51 40.725707 -112.010223 256 6878ft 206kts
04-Mar-19 17:52 40.751524 -112.081238 306 8666ft 229kts
04-Mar-19 17:53 40.792462 -112.158346 298 10583ft 269kts
04-Mar-19 17:54 40.819266 -112.248914 289 12182ft 263kts
04-Mar-19 17:55 40.844806 -112.339633 288 14196ft 262kts
04-Mar-19 17:56 40.869684 -112.430355 281 16191ft 262kts
04-Mar-19 17:57 40.866246 -112.526160 265 18554ft 260kts
04-Mar-19 17:58 40.859506 -112.617741 266 21226ft 246kts
04-Mar-19 17:59 40.852216 -112.705757 266 23488ft 238kts
04-Mar-19 18:00 40.844962 -112.793369 267 25323ft 239kts
04-Mar-19 18:02 40.841442 -112.880054 272 27050ft 234kts
04-Mar-19 18:03 40.842075 -112.971252 270 27740ft 264kts
04-Mar-19 18:04 40.842413 -113.079867 269 27876ft 306kts
04-Mar-19 18:05 40.842624 -113.199254 269 28601ft 325kts
04-Mar-19 18:06 40.842760 -113.319846 271 29919ft 322kts
04-Mar-19 18:07 40.842783 -113.436800 272 31333ft 313kts
04-Mar-19 18:08 40.842680 -113.551407 273 32563ft 307kts
04-Mar-19 18:09 40.842468 -113.663261 273 33695ft 300kts
04-Mar-19 18:10 40.841900 -113.776633 273 34742ft 297kts
04-Mar-19 18:11 40.841308 -113.889154 273 35652ft 295kts
04-Mar-19 18:12 40.840615 -114.003709 273 36168ft 299kts
04-Mar-19 18:13 40.839818 -114.120992 273 36342ft 306kts
04-Mar-19 18:14 40.838903 -114.236367 274 37145ft 294kts
04-Mar-19 18:15 40.837946 -114.347105 273 37937ft 281kts
04-Mar-19 18:16 40.837048 -114.457168 273 38121ft 293kts
04-Mar-19 18:17 40.835779 -114.569581 273 38564ft 293kts
04-Mar-19 18:18 40.834382 -114.680989 273 39278ft 285kts
04-Mar-19 18:19 40.829567 -114.789064 267 40101ft 279kts
04-Mar-19 18:20 40.816778 -114.898301 268 40130ft 290kts
04-Mar-19 18:20 40.806010 -114.993017 267 40110ft 300kts
04-Mar-19 18:22 40.790419 -115.129100 266 40117ft 310kts
04-Mar-19 18:23 40.776558 -115.249072 266 40107ft 317kts
04-Mar-19 18:23 40.764530 -115.352357 266 40101ft 322kts
04-Mar-19 18:24 40.749973 -115.475969 266 40102ft 327kts
04-Mar-19 18:26 40.732929 -115.619495 266 40089ft 330kts
04-Mar-19 18:27 40.717592 -115.745821 266 40116ft 335kts
04-Mar-19 18:27 40.704390 -115.854097 265 40116ft 338kts
04-Mar-19 18:28 40.688407 -115.984680 265 40110ft 341kts
04-Mar-19 18:29 40.672173 -116.116196 265 40106ft 343kts
04-Mar-19 18:30 40.656038 -116.245914 265 40101ft 344kts
04-Mar-19 18:31 40.639670 -116.376284 265 40094ft 343kts
04-Mar-19 18:32 40.623567 -116.503322 265 40089ft 343kts
04-Mar-19 18:33 40.607228 -116.630791 265 40089ft 342kts
04-Mar-19 18:34 40.589991 -116.763062 264 40106ft 345kts
04-Mar-19 18:35 40.575696 -116.897099 275 40112ft 348kts
04-Mar-19 18:36 40.602992 -117.023342 284 40099ft 350kts
04-Mar-19 18:37 40.640220 -117.147687 287 40096ft 354kts
04-Mar-19 18:38 40.679696 -117.274256 287 40090ft 352kts
04-Mar-19 18:39 40.719491 -117.401501 287 40081ft 353kts
04-Mar-19 18:40 40.759485 -117.528981 287 40071ft 354kts
04-Mar-19 18:41 40.799683 -117.656621 286 40071ft 354kts
04-Mar-19 18:42 40.839250 -117.781990 287 40087ft 354kts
04-Mar-19 18:43 40.879601 -117.909326 287 40084ft 354kts
04-Mar-19 18:44 40.919277 -118.034079 287 40083ft 353kts
04-Mar-19 18:45 40.959650 -118.160586 287 40070ft 353kts
04-Mar-19 18:46 41.000081 -118.286882 288 40077ft 360kts
04-Mar-19 18:47 41.040732 -118.413387 288 39753ft 368kts
04-Mar-19 18:48 41.081799 -118.540811 289 38654ft 370kts
04-Mar-19 18:49 41.123414 -118.669546 289 37585ft 377kts
04-Mar-19 18:50 41.168185 -118.807582 290 36050ft 375kts
04-Mar-19 18:51 41.211031 -118.939177 289 34040ft 384kts
04-Mar-19 18:52 41.254936 -119.073544 289 32028ft 398kts
04-Mar-19 18:53 41.297291 -119.212354 286 30008ft 408kts
04-Mar-19 18:54 41.337186 -119.356187 286 27999ft 421kts
04-Mar-19 18:55 41.378041 -119.504296 287 25976ft 433kts
04-Mar-19 18:56 41.418760 -119.652539 286 23911ft 420kts
04-Mar-19 18:57 41.458974 -119.800400 286 21918ft 419kts
04-Mar-19 18:58 41.498954 -119.948348 286 19939ft 428kts
04-Mar-19 18:59 41.536817 -120.088787 287 17873ft 383kts
04-Mar-19 19:00 41.572323 -120.221527 287 16537ft 388kts
04-Mar-19 19:01 41.608664 -120.358138 287 15827ft 389kts
04-Mar-19 19:02 41.644582 -120.493850 287 15115ft 387kts
04-Mar-19 19:03 41.680236 -120.629311 287 14401ft 385kts
04-Mar-19 19:04 41.715562 -120.764419 287 13704ft 383kts
04-Mar-19 19:05 41.750639 -120.899349 287 13005ft 381kts
04-Mar-19 19:06 41.785208 -121.033073 288 12307ft 379kts
04-Mar-19 19:07 41.819598 -121.166832 288 12197ft 374kts
04-Mar-19 19:08 41.850221 -121.286438 288 12197ft 325kts
04-Mar-19 19:09 41.878509 -121.397447 288 12239ft 275kts
04-Mar-19 19:10 41.907027 -121.490066 294 12219ft 241kts
04-Mar-19 19:11 41.922360 -121.573294 291 12155ft 214kts
04-Mar-19 19:12 41.959932 -121.628308 333 10823ft 204kts
04-Mar-19 19:13 42.010151 -121.655161 336 8643ft 171kts
04-Mar-19 19:14 42.053128 -121.677760 336 7240ft 164kts
04-Mar-19 19:15 42.095467 -121.700130 335 5719ft 158kts
04-Mar-19 19:16 42.135029 -121.721971 337 4297ft 143kts
04-Mar-19 19:17 42.154903 -121.732682 337 4096ft 27kts
04-Mar-19 19:18 42.157622 -121.735480 270 4096ft 0kts
04-Mar-19 19:19 42.157639 -121.737884 269 4096ft 16kts
04-Mar-19 19:20 42.158903 -121.741958 358 4096ft 12kts
04-Mar-19 19:21 42.161946 -121.742729 358 4096ft 0kts
04-Mar-19 19:22 42.161946 -121.742729 358 4096ft 0kts

Navigation Log

Ident Type
Flight plan parsing failed, navigation log unavailable